createdAt,value
2023-05-09T00:01:23.374Z,18.75
2023-05-09T00:03:54.751Z,19.20
2023-05-09T00:06:24.155Z,17.88
2023-05-09T00:08:53.417Z,16.80
2023-05-09T00:11:23.278Z,16.83
2023-05-09T00:13:53.107Z,17.98
2023-05-09T00:16:24.912Z,16.40
2023-05-09T00:18:54.217Z,16.92
2023-05-09T00:21:30.038Z,17.30
2023-05-09T00:24:00.074Z,18.38
2023-05-09T00:26:29.948Z,17.95
2023-05-09T00:28:59.405Z,18.75
2023-05-09T00:31:29.592Z,18.20
2023-05-09T00:33:58.887Z,19.13
2023-05-09T00:36:28.360Z,18.52
2023-05-09T00:38:58.148Z,19.10
2023-05-09T00:41:27.371Z,17.25
2023-05-09T00:43:57.449Z,17.52
2023-05-09T00:46:27.008Z,16.83
2023-05-09T00:48:58.146Z,14.45
2023-05-09T00:54:13.099Z,15.85
2023-05-09T00:56:42.368Z,15.73
2023-05-09T00:59:14.232Z,13.80
2023-05-09T01:01:48.257Z,15.60
2023-05-09T01:04:18.435Z,16.35
2023-05-09T01:08:02.255Z,14.13
2023-05-09T01:10:59.610Z,13.30
2023-05-09T01:14:07.204Z,14.02
2023-05-09T01:17:25.050Z,13.88
2023-05-09T01:23:19.666Z,14.15
2023-05-09T01:26:04.122Z,13.90
2023-05-09T01:29:02.840Z,12.82
2023-05-09T01:31:39.676Z,12.68
2023-05-09T01:34:12.572Z,12.40
2023-05-09T01:36:44.584Z,14.00
2023-05-09T01:39:16.433Z,11.90
2023-05-09T01:41:47.108Z,11.25
2023-05-09T01:44:18.514Z,10.23
2023-05-09T01:46:49.202Z,10.65
2023-05-09T01:49:24.370Z,11.27
2023-05-09T01:51:58.521Z,12.23
2023-05-09T01:54:30.307Z,9.38
2023-05-09T01:57:02.057Z,10.20
2023-05-09T01:59:34.766Z,10.75
2023-05-09T02:02:07.368Z,9.68
2023-05-09T02:04:38.348Z,11.50
2023-05-09T02:07:09.233Z,10.25
2023-05-09T02:09:40.266Z,9.15
2023-05-09T02:12:10.997Z,9.10
2023-05-09T02:14:40.212Z,10.98
2023-05-09T02:17:11.760Z,11.00
2023-05-09T02:19:40.897Z,11.23
2023-05-09T02:22:10.545Z,13.63
2023-05-09T02:24:41.555Z,13.95
2023-05-09T02:27:13.423Z,11.52
2023-05-09T02:29:57.609Z,8.98
2023-05-09T02:32:33.350Z,9.63
2023-05-09T02:35:12.120Z,9.75
2023-05-09T02:37:49.397Z,8.93
2023-05-09T02:43:10.920Z,11.35
2023-05-09T02:45:41.173Z,9.82
2023-05-09T02:48:10.732Z,9.88
2023-05-09T02:50:40.537Z,10.68
2023-05-09T02:53:10.107Z,10.32
2023-05-09T02:55:39.489Z,9.27
2023-05-09T02:58:14.051Z,8.45
2023-05-09T03:00:45.047Z,8.95
2023-05-09T03:03:14.703Z,8.48
2023-05-09T03:05:44.381Z,8.32
2023-05-09T03:08:13.683Z,9.88
2023-05-09T03:10:42.974Z,9.07
2023-05-09T03:13:15.199Z,9.15
2023-05-09T03:15:44.502Z,7.80
2023-05-09T03:18:14.108Z,8.40
2023-05-09T03:20:43.400Z,8.45
2023-05-09T03:23:15.431Z,9.30
2023-05-09T03:25:44.680Z,8.40
2023-05-09T03:28:13.977Z,8.77
2023-05-09T03:30:44.167Z,9.15
2023-05-09T03:33:14.741Z,8.80
2023-05-09T03:35:44.143Z,9.63
2023-05-09T03:38:13.475Z,10.35
2023-05-09T03:40:42.832Z,9.20
2023-05-09T03:43:12.083Z,9.77
2023-05-09T03:45:41.453Z,9.98
2023-05-09T03:48:12.255Z,10.50
2023-05-09T03:50:41.938Z,10.27
2023-05-09T03:53:20.132Z,9.90
2023-05-09T03:58:32.345Z,9.60
2023-05-09T04:01:01.711Z,8.50
2023-05-09T04:03:31.317Z,8.88
2023-05-09T04:06:00.754Z,8.27
2023-05-09T04:08:30.237Z,9.88
2023-05-09T04:10:59.620Z,8.85
2023-05-09T04:13:30.860Z,9.13
2023-05-09T04:16:03.916Z,8.38
2023-05-09T04:18:34.510Z,7.72
2023-05-09T04:21:04.310Z,8.07
2023-05-09T04:23:33.611Z,7.78
2023-05-09T04:26:03.080Z,7.70
2023-05-09T04:28:35.537Z,7.88
2023-05-09T04:31:05.130Z,8.25
2023-05-09T04:33:35.681Z,8.13
2023-05-09T04:36:05.109Z,8.48
2023-05-09T04:38:34.334Z,8.40
2023-05-09T04:41:03.633Z,8.48
2023-05-09T04:43:33.537Z,7.72
2023-05-09T04:46:06.021Z,8.48
2023-05-09T04:48:36.670Z,8.48
2023-05-09T04:51:05.986Z,8.35
2023-05-09T04:53:35.402Z,8.80
2023-05-09T04:56:04.659Z,10.05
2023-05-09T04:58:35.593Z,8.80
2023-05-09T05:01:04.962Z,9.07
2023-05-09T05:03:34.664Z,7.95
2023-05-09T05:06:03.889Z,11.23
2023-05-09T05:08:33.043Z,7.85
2023-05-09T05:11:02.471Z,8.52
2023-05-09T05:13:31.826Z,8.27
2023-05-09T05:16:01.068Z,7.88
2023-05-09T05:18:30.355Z,7.60
2023-05-09T05:20:59.501Z,7.00
2023-05-09T05:23:28.734Z,7.22
2023-05-09T05:25:57.972Z,7.38
2023-05-09T05:28:27.193Z,8.10
2023-05-09T05:30:56.478Z,7.88
2023-05-09T05:33:26.034Z,7.30
2023-05-09T05:35:55.209Z,7.93
2023-05-09T05:38:24.460Z,8.70
2023-05-09T05:40:53.799Z,8.23
2023-05-09T05:43:22.957Z,7.82
2023-05-09T05:45:52.138Z,8.30
2023-05-09T05:48:21.499Z,7.95
2023-05-09T05:50:50.706Z,9.18
2023-05-09T05:53:19.856Z,9.30
2023-05-09T05:55:50.230Z,8.80
2023-05-09T05:58:19.484Z,8.70
2023-05-09T06:00:48.694Z,8.40
2023-05-09T06:03:18.488Z,8.68
2023-05-09T06:05:49.483Z,8.57
2023-05-09T06:08:18.724Z,9.50
2023-05-09T06:10:47.868Z,8.85
2023-05-09T06:13:17.131Z,9.27
2023-05-09T06:15:46.566Z,8.82
2023-05-09T06:18:15.833Z,8.70
2023-05-09T06:20:45.051Z,9.05
2023-05-09T06:23:14.272Z,9.45
2023-05-09T06:25:43.477Z,9.48
2023-05-09T06:28:12.641Z,8.38
2023-05-09T06:30:41.992Z,8.98
2023-05-09T06:33:11.437Z,8.90
2023-05-09T06:35:40.674Z,8.90
2023-05-09T06:38:09.957Z,8.77
2023-05-09T06:40:39.540Z,8.65
2023-05-09T06:43:08.750Z,9.10
2023-05-09T06:45:38.137Z,8.43
2023-05-09T06:48:07.806Z,9.50
2023-05-09T06:50:36.989Z,9.13
2023-05-09T06:53:06.326Z,8.18
2023-05-09T06:55:35.630Z,10.50
2023-05-09T06:58:05.803Z,9.65
2023-05-09T07:00:35.228Z,9.50
2023-05-09T07:03:04.512Z,8.57
2023-05-09T07:05:33.756Z,8.75
2023-05-09T07:08:03.099Z,9.73
2023-05-09T07:10:32.532Z,8.40
2023-05-09T07:13:01.729Z,8.70
2023-05-09T07:15:40.306Z,8.65
2023-05-09T07:18:11.620Z,8.38
2023-05-09T07:20:41.205Z,8.68
2023-05-09T07:23:10.496Z,10.23
2023-05-09T07:25:39.822Z,8.60
2023-05-09T07:28:09.084Z,8.50
2023-05-09T07:30:38.272Z,8.23
2023-05-09T07:33:08.553Z,9.52
2023-05-09T07:35:37.835Z,8.57
2023-05-09T07:38:07.512Z,9.05
2023-05-09T07:40:38.137Z,8.85
2023-05-09T07:43:07.345Z,8.48
2023-05-09T07:45:37.385Z,8.30
2023-05-09T07:48:07.043Z,8.52
2023-05-09T07:50:36.360Z,8.00
2023-05-09T07:53:05.685Z,8.50
2023-05-09T07:55:34.830Z,8.35
2023-05-09T07:58:04.026Z,7.72
2023-05-09T08:00:33.293Z,7.95
2023-05-09T08:03:02.573Z,8.27
2023-05-09T08:05:31.945Z,7.60
2023-05-09T08:08:01.289Z,7.57
2023-05-09T08:10:32.079Z,8.15
2023-05-09T08:13:01.621Z,8.88
2023-05-09T08:15:32.259Z,8.07
2023-05-09T08:18:01.585Z,8.30
2023-05-09T08:20:32.870Z,8.07
2023-05-09T08:23:02.130Z,9.30
2023-05-09T08:25:31.354Z,9.20
2023-05-09T08:28:00.792Z,9.88
2023-05-09T08:30:30.617Z,9.63
2023-05-09T08:32:59.834Z,9.35
2023-05-09T08:35:29.094Z,8.82
2023-05-09T08:37:59.113Z,8.90
2023-05-09T08:40:28.330Z,9.23
2023-05-09T08:42:58.383Z,9.60
2023-05-09T08:45:31.624Z,8.27
2023-05-09T08:48:03.817Z,9.25
2023-05-09T08:50:33.739Z,9.52
2023-05-09T08:53:03.256Z,8.88
2023-05-09T08:55:34.089Z,9.13
2023-05-09T08:58:05.154Z,9.43
2023-05-09T09:00:35.892Z,9.35
2023-05-09T09:03:07.886Z,9.45
2023-05-09T09:05:42.743Z,10.10
2023-05-09T09:08:12.909Z,10.95
2023-05-09T09:10:47.993Z,10.95
2023-05-09T09:13:19.230Z,10.38
2023-05-09T09:15:50.220Z,11.05
2023-05-09T09:18:30.633Z,11.00
2023-05-09T09:21:08.687Z,10.88
2023-05-09T09:23:44.054Z,10.15
2023-05-09T09:26:16.234Z,10.43
2023-05-09T09:28:45.593Z,10.48
2023-05-09T09:31:26.584Z,10.70
2023-05-09T09:34:02.761Z,10.30
2023-05-09T09:36:37.678Z,10.95
2023-05-09T09:39:07.777Z,10.75
2023-05-09T09:41:41.536Z,11.05
2023-05-09T09:44:22.537Z,10.27
2023-05-09T09:46:57.430Z,10.30
2023-05-09T09:49:28.325Z,9.48
2023-05-09T09:51:59.842Z,9.80
2023-05-09T09:54:30.246Z,9.02
2023-05-09T09:56:59.759Z,11.07
2023-05-09T09:59:29.303Z,10.60
2023-05-09T10:02:08.525Z,10.52
2023-05-09T10:04:44.330Z,11.30
2023-05-09T10:07:15.101Z,10.27
2023-05-09T10:09:44.807Z,10.02
2023-05-09T10:12:16.437Z,9.43
2023-05-09T10:14:47.052Z,10.02
2023-05-09T10:17:17.491Z,9.52
2023-05-09T10:19:48.854Z,10.68
2023-05-09T10:22:20.773Z,10.70
2023-05-09T10:25:04.581Z,10.32
2023-05-09T10:27:38.033Z,10.23
2023-05-09T10:30:23.589Z,10.30
2023-05-09T10:33:12.071Z,10.52
2023-05-09T10:35:48.742Z,11.05
2023-05-09T10:38:19.469Z,11.27
2023-05-09T10:40:49.782Z,11.13
2023-05-09T10:43:19.495Z,10.10
2023-05-09T10:45:49.622Z,11.38
2023-05-09T10:48:19.693Z,11.77
2023-05-09T10:50:50.060Z,11.10
2023-05-09T10:53:19.350Z,11.48
2023-05-09T10:56:03.992Z,11.88
2023-05-09T10:58:38.336Z,11.27
2023-05-09T11:01:08.005Z,10.77
2023-05-09T11:03:59.319Z,10.90
2023-05-09T11:06:45.287Z,11.23
2023-05-09T11:09:43.798Z,11.40
2023-05-09T11:12:16.530Z,10.73
2023-05-09T11:14:52.688Z,11.02
2023-05-09T11:17:25.675Z,10.45
2023-05-09T11:19:54.987Z,10.98
2023-05-09T11:22:33.675Z,10.43
2023-05-09T11:25:13.803Z,10.77
2023-05-09T11:27:44.768Z,11.70
2023-05-09T11:30:20.852Z,13.10
2023-05-09T11:32:56.472Z,12.55
2023-05-09T11:35:29.957Z,10.75
2023-05-09T11:38:08.814Z,10.13
2023-05-09T11:40:39.495Z,10.70
2023-05-09T11:43:10.490Z,10.30
2023-05-09T11:45:42.422Z,10.82
2023-05-09T11:48:12.005Z,13.02
2023-05-09T11:50:42.739Z,10.98
2023-05-09T11:53:14.234Z,10.10
2023-05-09T11:55:43.815Z,10.02
2023-05-09T11:58:14.914Z,10.38
2023-05-09T12:00:48.573Z,11.60
2023-05-09T12:03:18.493Z,11.38
2023-05-09T12:05:50.674Z,11.10
2023-05-09T12:08:23.892Z,10.77
2023-05-09T12:10:54.787Z,10.60
2023-05-09T12:13:24.195Z,10.65
2023-05-09T12:16:01.573Z,11.90
2023-05-09T12:18:30.949Z,12.20
2023-05-09T12:21:01.265Z,11.95
2023-05-09T12:23:35.906Z,13.98
2023-05-09T12:26:07.722Z,12.00
2023-05-09T12:28:40.166Z,11.32
2023-05-09T12:31:10.247Z,11.85
2023-05-09T12:33:41.416Z,11.77
2023-05-09T12:36:20.632Z,11.40
2023-05-09T12:38:58.170Z,11.48
2023-05-09T12:41:36.959Z,10.25
2023-05-09T12:44:10.684Z,9.63
2023-05-09T12:46:40.184Z,8.57
2023-05-09T12:49:23.637Z,8.68
2023-05-09T12:51:54.773Z,8.95
2023-05-09T12:54:30.826Z,8.35
2023-05-09T12:57:03.817Z,7.40
2023-05-09T12:59:34.908Z,7.68
2023-05-09T13:02:04.596Z,7.55
2023-05-09T13:04:34.123Z,7.68
2023-05-09T13:07:10.861Z,6.72
2023-05-09T13:10:02.012Z,5.70
2023-05-09T13:12:31.420Z,5.57
2023-05-09T13:15:01.769Z,5.75
2023-05-09T13:17:32.148Z,6.15
2023-05-09T13:20:02.230Z,4.55
2023-05-09T13:22:34.142Z,5.32
2023-05-09T13:25:03.565Z,5.22
2023-05-09T13:27:33.913Z,5.88
2023-05-09T13:30:03.424Z,6.68
2023-05-09T13:32:32.839Z,7.03
2023-05-09T13:35:02.156Z,6.43
2023-05-09T13:37:32.189Z,7.10
2023-05-09T13:40:01.487Z,7.03
2023-05-09T13:42:30.942Z,6.80
2023-05-09T13:45:00.443Z,7.00
2023-05-09T13:47:32.802Z,6.95
2023-05-09T13:50:02.294Z,8.68
2023-05-09T13:52:31.931Z,8.63
2023-05-09T13:55:02.268Z,8.25
2023-05-09T13:57:31.580Z,7.95
2023-05-09T14:05:27.934Z,11.50
2023-05-09T14:10:40.663Z,9.35
2023-05-09T14:13:10.343Z,9.88
2023-05-09T14:15:41.370Z,9.07
2023-05-09T14:18:11.842Z,9.10
2023-05-09T14:20:43.339Z,9.20
2023-05-09T14:23:26.393Z,8.85
2023-05-09T14:26:02.291Z,7.80
2023-05-09T14:31:20.139Z,7.68
2023-05-09T14:33:49.641Z,7.10
2023-05-09T14:36:20.356Z,8.30
2023-05-09T14:38:50.958Z,7.43
2023-05-09T14:41:22.638Z,7.35
2023-05-09T14:43:57.626Z,7.15
2023-05-09T14:46:33.842Z,9.13
2023-05-09T14:49:05.422Z,9.00
2023-05-09T14:51:35.225Z,6.65
2023-05-09T14:54:05.951Z,6.88
2023-05-09T14:56:41.243Z,6.50
2023-05-09T14:59:20.566Z,7.22
2023-05-09T15:01:57.333Z,6.40
2023-05-09T15:07:23.904Z,6.25
2023-05-09T15:12:42.249Z,5.22
2023-05-09T15:18:14.830Z,6.40
2023-05-09T15:20:44.839Z,6.63
2023-05-09T15:23:14.918Z,7.38
2023-05-09T15:25:45.633Z,7.45
2023-05-09T15:28:15.114Z,6.60
2023-05-09T15:30:47.808Z,6.57
2023-05-09T15:33:17.129Z,6.82
2023-05-09T15:35:52.276Z,7.18
2023-05-09T15:38:34.090Z,6.75
2023-05-09T15:41:06.395Z,6.97
2023-05-09T15:43:40.005Z,7.25
2023-05-09T15:46:14.850Z,6.65
2023-05-09T15:48:47.118Z,6.93
2023-05-09T15:51:16.565Z,6.13
2023-05-09T15:53:46.000Z,6.60
2023-05-09T15:56:15.619Z,6.30
2023-05-09T15:59:06.746Z,6.90
2023-05-09T16:01:37.219Z,7.57
2023-05-09T16:04:08.937Z,7.00
2023-05-09T16:06:38.966Z,7.93
2023-05-09T16:09:08.548Z,7.63
2023-05-09T16:11:38.242Z,7.65
2023-05-09T16:14:10.379Z,7.63
2023-05-09T16:16:47.076Z,8.95
2023-05-09T16:19:16.392Z,7.00
2023-05-09T16:21:48.598Z,8.07
2023-05-09T16:24:17.936Z,7.10
2023-05-09T16:26:47.116Z,6.53
2023-05-09T16:29:16.313Z,6.70
2023-05-09T16:31:45.910Z,7.15
2023-05-09T16:34:15.092Z,6.97
2023-05-09T16:36:45.683Z,7.15
2023-05-09T16:39:15.132Z,9.32
2023-05-09T16:41:44.501Z,8.82
2023-05-09T16:44:13.986Z,7.53
2023-05-09T16:46:43.509Z,7.65
2023-05-09T16:49:16.475Z,7.32
2023-05-09T16:51:46.709Z,7.38
2023-05-09T16:54:16.172Z,7.95
2023-05-09T16:56:45.478Z,7.80
2023-05-09T16:59:14.846Z,7.10
2023-05-09T17:01:44.340Z,6.93
2023-05-09T17:04:13.739Z,7.47
2023-05-09T17:06:43.102Z,6.00
2023-05-09T17:09:12.587Z,7.55
2023-05-09T17:11:41.991Z,6.93
2023-05-09T17:14:11.428Z,6.80
2023-05-09T17:16:40.742Z,6.20
2023-05-09T17:19:10.058Z,6.15
2023-05-09T17:21:42.528Z,6.63
2023-05-09T17:24:12.129Z,6.18
2023-05-09T17:26:42.064Z,6.25
2023-05-09T17:29:11.436Z,6.00
2023-05-09T17:31:40.908Z,5.00
2023-05-09T17:34:10.198Z,5.30
2023-05-09T17:36:39.496Z,5.15
2023-05-09T17:39:08.841Z,5.72
2023-05-09T17:41:38.100Z,5.55
2023-05-09T17:44:07.594Z,5.88
2023-05-09T17:46:37.013Z,5.25
2023-05-09T17:49:08.713Z,5.05
2023-05-09T17:51:38.253Z,4.85
2023-05-09T17:54:07.792Z,4.80
2023-05-09T17:56:37.432Z,4.63
2023-05-09T17:59:07.564Z,4.38
2023-05-09T18:01:37.009Z,4.60
2023-05-09T18:04:07.413Z,4.40
2023-05-09T18:06:38.139Z,4.38
2023-05-09T18:09:08.038Z,4.05
2023-05-09T18:11:37.560Z,4.20
2023-05-09T18:14:07.396Z,4.45
2023-05-09T18:16:37.273Z,3.72
2023-05-09T18:19:06.925Z,3.67
2023-05-09T18:21:37.492Z,4.13
2023-05-09T18:24:10.080Z,3.33
2023-05-09T18:26:39.359Z,3.55
2023-05-09T18:29:08.909Z,4.00
2023-05-09T18:31:40.469Z,3.03
2023-05-09T18:34:10.319Z,3.50
2023-05-09T18:36:39.702Z,3.53
2023-05-09T18:39:10.182Z,3.13
2023-05-09T18:41:39.538Z,3.15
2023-05-09T18:44:09.575Z,3.22
2023-05-09T18:46:39.068Z,2.83
2023-05-09T18:49:08.860Z,2.83
2023-05-09T18:51:38.135Z,2.60
2023-05-09T18:54:13.443Z,2.58
2023-05-09T18:56:49.798Z,2.40
2023-05-09T18:59:19.171Z,2.35
2023-05-09T19:01:48.467Z,2.45
2023-05-09T19:04:21.121Z,3.33
2023-05-09T19:06:51.699Z,2.15
2023-05-09T19:09:20.991Z,2.22
2023-05-09T19:11:50.260Z,1.98
2023-05-09T19:14:19.476Z,2.67
2023-05-09T19:16:48.798Z,2.75
2023-05-09T19:19:18.067Z,2.17
2023-05-09T19:21:49.124Z,3.40
2023-05-09T19:24:24.364Z,2.60
2023-05-09T19:26:53.632Z,2.30
2023-05-09T19:29:22.783Z,2.53
2023-05-09T19:31:52.198Z,2.30
2023-05-09T19:34:22.096Z,3.13
2023-05-09T19:36:51.720Z,1.92
2023-05-09T19:39:21.100Z,1.98
2023-05-09T19:41:51.191Z,2.25
2023-05-09T19:44:20.522Z,2.30
2023-05-09T19:46:50.483Z,2.75
2023-05-09T19:49:19.915Z,2.92
2023-05-09T19:51:49.284Z,2.35
2023-05-09T19:54:18.747Z,1.83
2023-05-09T19:56:48.298Z,2.58
2023-05-09T19:59:19.605Z,2.88
2023-05-09T20:01:49.103Z,2.85
2023-05-09T20:04:22.645Z,3.30
2023-05-09T20:06:52.740Z,2.65
2023-05-09T20:09:22.292Z,2.60
2023-05-09T20:11:51.650Z,2.97
2023-05-09T20:14:20.942Z,2.50
2023-05-09T20:16:50.392Z,2.72
2023-05-09T20:19:30.674Z,2.75
2023-05-09T20:22:00.607Z,3.38
2023-05-09T20:24:32.379Z,2.67
2023-05-09T20:27:03.492Z,2.63
2023-05-09T20:29:32.772Z,2.60
2023-05-09T20:32:03.144Z,3.03
2023-05-09T20:34:32.569Z,3.63
2023-05-09T20:37:02.509Z,3.92
2023-05-09T20:39:31.895Z,3.30
2023-05-09T20:42:03.230Z,3.40
2023-05-09T20:44:32.597Z,3.05
2023-05-09T20:47:18.458Z,2.70
2023-05-09T20:49:47.809Z,2.72
2023-05-09T20:52:17.142Z,3.15
2023-05-09T20:54:49.087Z,2.55
2023-05-09T20:57:21.105Z,3.35
2023-05-09T20:59:50.424Z,3.20
2023-05-09T21:02:19.761Z,3.70
2023-05-09T21:04:49.039Z,3.22
2023-05-09T21:07:21.021Z,3.22
2023-05-09T21:09:54.701Z,2.60
2023-05-09T21:15:17.598Z,3.45
2023-05-09T21:17:48.413Z,3.78
2023-05-09T21:20:18.074Z,2.97
2023-05-09T21:22:47.631Z,4.03
2023-05-09T21:25:18.494Z,4.05
2023-05-09T21:27:47.822Z,4.90
2023-05-09T21:30:17.503Z,4.28
2023-05-09T21:32:46.989Z,3.85
2023-05-09T21:35:16.615Z,3.03
2023-05-09T21:37:47.048Z,4.28
2023-05-09T21:40:16.728Z,4.13
2023-05-09T21:42:46.290Z,4.07
2023-05-09T21:45:15.927Z,5.30
2023-05-09T21:47:45.464Z,4.65
2023-05-09T21:50:15.080Z,4.97
2023-05-09T21:52:44.581Z,4.68
2023-05-09T21:55:14.201Z,7.18
2023-05-09T21:57:43.651Z,7.07
2023-05-09T22:00:16.279Z,4.00
2023-05-09T22:02:46.317Z,4.18
2023-05-09T22:05:15.883Z,5.32
2023-05-09T22:07:45.397Z,4.70
2023-05-09T22:10:14.934Z,4.20
2023-05-09T22:12:44.535Z,4.78
2023-05-09T22:15:14.128Z,5.45
2023-05-09T22:17:43.512Z,5.43
2023-05-09T22:20:13.901Z,5.47
2023-05-09T22:22:43.506Z,4.63
2023-05-09T22:25:13.008Z,4.22
2023-05-09T22:27:42.240Z,5.13
2023-05-09T22:30:13.559Z,6.10
2023-05-09T22:32:43.455Z,5.53
2023-05-09T22:35:12.911Z,6.05
2023-05-09T22:37:45.351Z,5.70
2023-05-09T22:40:15.784Z,5.03
2023-05-09T22:42:45.337Z,5.28
2023-05-09T22:45:14.890Z,4.45
2023-05-09T22:47:44.388Z,5.10
2023-05-09T22:50:14.727Z,5.00
2023-05-09T22:52:44.389Z,5.20
2023-05-09T22:55:13.837Z,5.20
2023-05-09T22:57:43.488Z,5.60
2023-05-09T23:00:13.964Z,5.65
2023-05-09T23:02:43.592Z,6.15
2023-05-09T23:05:13.058Z,6.43
2023-05-09T23:07:42.617Z,5.78
2023-05-09T23:10:12.464Z,5.45
2023-05-09T23:12:41.797Z,8.07
2023-05-09T23:15:12.371Z,23.45
2023-05-09T23:17:42.513Z,11.70
2023-05-09T23:20:12.709Z,8.18
2023-05-09T23:22:42.046Z,6.95
2023-05-09T23:25:11.789Z,5.60
2023-05-09T23:27:41.752Z,4.97
2023-05-09T23:30:12.442Z,4.97
2023-05-09T23:32:43.172Z,5.00
2023-05-09T23:35:12.872Z,5.93
2023-05-09T23:37:43.866Z,5.07
2023-05-09T23:40:14.242Z,6.35
2023-05-09T23:42:43.839Z,5.72
2023-05-09T23:45:13.755Z,5.60
2023-05-09T23:47:43.050Z,6.07
2023-05-09T23:50:13.454Z,6.55
2023-05-09T23:52:44.496Z,7.57
2023-05-09T23:55:14.136Z,6.80
2023-05-09T23:57:43.502Z,6.93
